Aeroporto :
LOGIN :

Iscrizione | Disclaimer

   EN    FR    IT 

 










Sommario :    VFR   VFR Marginale   IFR   IFR Intensivo   IFR Molto Intensivo
Visibilità : 
Base nubi : 
>= 8 km
>= 3000ft
5 / 8 km
1000 / 3000 ft
1500m / 5 km
500 / 1000 ft
800 / 1500m
200 / 500 ft
< 800m
< 200 ft
Simboli :   Temporali  Nebbia  Neve Forte  Precipitazioni Forti  Vento > 20 kt
SIGMETs :   Varie  Temporali  Ghiacco  Turbolenza  Onda orograficha  Ceneri Vulcaniche







- Altitudine del aeroporto : 779 ft
- Codice IATA : CMF
- Carte del aeroporto


LFLB - Chambery / Aix-Les-Bains

ULTIMO METAR :
  • 232200Z AUTO VRB01KT 9999 FEW064 SCT110 13/11 Q1001

METARs OBSOLETI :
  • 232130Z AUTO 17003KT 9999 FEW064 BKN130 13/11 Q1000
  • 232100Z AUTO VRB03KT CAVOK 14/11 Q1000
  • 232030Z AUTO 03004KT CAVOK 16/11 Q1000
  • 232000Z AUTO VRB02KT CAVOK 17/11 Q0999
  • 231930Z AUTO VRB03KT CAVOK 17/11 Q0999

TAF TAF LFLB
Valido dal 23 a 12 ore il 24 a 12 ore UTC


231100Z 2312/2412 36006KT CAVOK
TEMPO 2313/2318 FEW055TCU BKN070
PROB40
TEMPO 2314/2317 4000 -SHRA FEW050CB SCT055TCU
BECMG 2400/2402 20008KT
TEMPO 2409/2412 20015G30KT
PROB40
TEMPO 2410/2412 20020G40KT
Nessun NOTAM noto per questo aeroporto.
1 SIGMET conosciuto per la FIR Marseille (LFMM) :
 
Turbolenza severa
LFMM SIGMET 2 VALID 232100/232300 LFPW
LFMM MARSEILLE FIR/UIR SEV TURB FCST WI N4330 E00245 - N4545 E00300 - N4545 E00500 - N4500 E00500 - N4330 E00245 SFC/FL070 STNR INTSF=



MetMap, La meteo Aeronautica in un colpo d'occhio ! - Copyright ORBIFLY Dicembre 2007 - Disclaimer

ORBIFLY MET'MAP TEAM :

Programmazione e sviluppo : Alexandra Zaïnal
Concezione e sviluppo : Baudouin d'Aumeries
Co-Programmazione e sviluppo : Marc-Olivier Méhu
Supporto tecnico e logistico : Manuel Goepfert
Aiuto per la traduzione : Arnaldo La Scala

Contatto : metmap@orbifly.com




FONTI E CREDITI :

   NOAA